createdAt,value
2018-07-21T00:01:46.152Z,21.30
2018-07-21T00:04:15.503Z,21.30
2018-07-21T00:06:45.447Z,21.30
2018-07-21T00:09:15.448Z,21.20
2018-07-21T00:11:44.873Z,21.20
2018-07-21T00:14:20.531Z,21.20
2018-07-21T00:16:50.169Z,21.10
2018-07-21T00:19:19.521Z,21.10
2018-07-21T00:21:48.987Z,21.00
2018-07-21T00:24:18.319Z,21.00
2018-07-21T00:26:50.011Z,21.00
2018-07-21T00:29:20.140Z,20.90
2018-07-21T00:31:49.993Z,20.80
2018-07-21T00:34:19.287Z,20.80
2018-07-21T00:36:48.665Z,20.70
2018-07-21T00:39:18.118Z,20.70
2018-07-21T00:41:47.534Z,20.70
2018-07-21T00:44:16.872Z,20.70
2018-07-21T00:46:46.357Z,20.50
2018-07-21T00:49:15.808Z,20.50
2018-07-21T00:51:46.254Z,20.50
2018-07-21T00:54:15.632Z,20.40
2018-07-21T00:56:44.992Z,20.40
2018-07-21T00:59:14.456Z,20.40
2018-07-21T01:01:43.883Z,20.30
2018-07-21T01:04:13.283Z,20.30
2018-07-21T01:06:42.580Z,20.30
2018-07-21T01:09:12.042Z,20.20
2018-07-21T01:11:41.343Z,20.10
2018-07-21T01:14:10.607Z,20.10
2018-07-21T01:16:39.833Z,20.10
2018-07-21T01:19:09.104Z,20.10
2018-07-21T01:21:38.511Z,20.10
2018-07-21T01:24:07.852Z,20.10
2018-07-21T01:26:37.150Z,20.00
2018-07-21T01:29:06.660Z,20.00
2018-07-21T01:31:36.050Z,19.90
2018-07-21T01:34:05.305Z,19.80
2018-07-21T01:36:34.648Z,19.80
2018-07-21T01:39:07.788Z,19.80
2018-07-21T01:41:37.210Z,19.80
2018-07-21T01:44:06.789Z,19.80
2018-07-21T01:46:36.265Z,19.70
2018-07-21T01:49:05.505Z,19.70
2018-07-21T01:51:34.965Z,19.70
2018-07-21T01:54:04.445Z,19.60
2018-07-21T01:56:33.998Z,19.60
2018-07-21T01:59:03.420Z,19.60
2018-07-21T02:01:34.801Z,19.50
2018-07-21T02:04:07.570Z,19.50
2018-07-21T02:06:37.472Z,19.50
2018-07-21T02:09:08.524Z,19.40
2018-07-21T02:11:39.380Z,19.40
2018-07-21T02:14:09.060Z,19.40
2018-07-21T02:16:38.496Z,19.30
2018-07-21T02:19:08.088Z,19.30
2018-07-21T02:21:37.608Z,19.30
2018-07-21T02:24:07.028Z,19.30
2018-07-21T02:26:39.186Z,19.20
2018-07-21T02:32:06.829Z,19.20
2018-07-21T02:34:36.180Z,19.10
2018-07-21T02:37:05.428Z,19.20
2018-07-21T02:39:34.810Z,19.10
2018-07-21T02:42:09.162Z,19.10
2018-07-21T02:44:39.511Z,19.00
2018-07-21T02:47:09.135Z,19.00
2018-07-21T02:49:38.723Z,19.00
2018-07-21T02:52:08.361Z,19.00
2018-07-21T02:54:37.708Z,18.90
2018-07-21T02:57:07.114Z,18.90
2018-07-21T02:59:36.473Z,18.90
2018-07-21T03:02:06.218Z,18.90
2018-07-21T03:04:35.574Z,18.90
2018-07-21T03:07:05.038Z,18.90
2018-07-21T03:09:34.894Z,18.90
2018-07-21T03:12:04.313Z,18.90
2018-07-21T03:14:33.949Z,18.80
2018-07-21T03:17:06.683Z,18.80
2018-07-21T03:19:36.901Z,18.90
2018-07-21T03:22:06.392Z,18.90
2018-07-21T03:24:35.713Z,18.80
2018-07-21T03:27:05.016Z,18.90
2018-07-21T03:29:34.640Z,18.90
2018-07-21T03:34:45.544Z,18.90
2018-07-21T03:37:15.068Z,18.80
2018-07-21T03:39:44.437Z,18.80
2018-07-21T03:42:13.973Z,18.80
2018-07-21T03:44:43.442Z,18.80
2018-07-21T03:47:12.794Z,18.80
2018-07-21T03:49:42.396Z,18.80
2018-07-21T03:52:11.790Z,18.80
2018-07-21T03:54:41.364Z,18.80
2018-07-21T03:57:10.733Z,18.70
2018-07-21T03:59:40.144Z,18.70
2018-07-21T04:02:09.576Z,18.70
2018-07-21T04:04:38.876Z,18.70
2018-07-21T04:07:08.349Z,18.70
2018-07-21T04:09:37.947Z,18.70
2018-07-21T04:12:07.642Z,18.70
2018-07-21T04:14:37.105Z,18.70
2018-07-21T04:17:10.473Z,18.80
2018-07-21T04:19:39.814Z,18.80
2018-07-21T04:22:09.396Z,18.80
2018-07-21T04:24:40.761Z,18.80
2018-07-21T04:27:10.266Z,18.80
2018-07-21T04:29:39.684Z,18.80
2018-07-21T04:32:09.258Z,18.80
2018-07-21T04:34:38.564Z,18.80
2018-07-21T04:37:07.960Z,18.90
2018-07-21T04:39:37.720Z,18.90
2018-07-21T04:42:07.353Z,19.00
2018-07-21T04:44:36.697Z,19.00
2018-07-21T04:47:06.112Z,19.10
2018-07-21T04:49:35.504Z,19.10
2018-07-21T04:52:05.112Z,19.20
2018-07-21T04:54:34.574Z,19.20
2018-07-21T04:57:04.163Z,19.30
2018-07-21T04:59:33.682Z,19.40
2018-07-21T05:02:03.379Z,19.40
2018-07-21T05:04:32.969Z,19.50
2018-07-21T05:07:02.475Z,19.60
2018-07-21T05:09:32.096Z,19.70
2018-07-21T05:12:01.451Z,19.80
2018-07-21T05:14:39.415Z,19.80
2018-07-21T05:17:15.713Z,19.90
2018-07-21T05:19:52.166Z,20.00
2018-07-21T05:22:27.885Z,20.10
2018-07-21T05:25:06.372Z,20.20
2018-07-21T05:27:35.862Z,20.30
2018-07-21T05:30:17.499Z,20.40
2018-07-21T05:32:50.835Z,20.50
2018-07-21T05:35:24.608Z,20.60
2018-07-21T05:37:54.578Z,20.60
2018-07-21T05:40:24.036Z,20.70
2018-07-21T05:42:53.485Z,20.80
2018-07-21T05:45:23.744Z,20.90
2018-07-21T05:47:53.253Z,21.00
2018-07-21T05:50:23.070Z,21.10
2018-07-21T05:52:52.426Z,21.20
2018-07-21T05:55:24.069Z,21.30
2018-07-21T05:57:53.587Z,21.40
2018-07-21T06:00:39.551Z,21.50
2018-07-21T06:03:09.221Z,21.60
2018-07-21T06:05:43.001Z,21.70
2018-07-21T06:08:12.523Z,21.80
2018-07-21T06:10:42.253Z,21.90
2018-07-21T06:13:11.964Z,22.00
2018-07-21T06:15:41.893Z,22.10
2018-07-21T06:18:11.541Z,22.30
2018-07-21T06:20:41.517Z,22.40
2018-07-21T06:23:10.912Z,22.50
2018-07-21T06:25:40.345Z,22.60
2018-07-21T06:28:09.994Z,22.70
2018-07-21T06:30:39.763Z,22.90
2018-07-21T06:33:18.694Z,23.00
2018-07-21T06:35:48.245Z,23.20
2018-07-21T06:38:18.163Z,23.30
2018-07-21T06:40:47.621Z,23.40
2018-07-21T06:43:16.983Z,23.60
2018-07-21T06:45:46.184Z,23.70
2018-07-21T06:48:16.400Z,23.90
2018-07-21T06:50:45.988Z,24.00
2018-07-21T06:53:20.662Z,24.20
2018-07-21T06:55:50.060Z,24.30
2018-07-21T06:58:25.300Z,24.50
2018-07-21T07:00:56.363Z,24.70
2018-07-21T07:03:25.719Z,24.90
2018-07-21T07:05:55.273Z,25.10
2018-07-21T07:08:24.856Z,25.20
2018-07-21T07:10:54.709Z,25.40
2018-07-21T07:13:27.400Z,25.60
2018-07-21T07:16:02.612Z,25.80
2018-07-21T07:18:48.105Z,25.90
2018-07-21T07:21:53.282Z,26.20
2018-07-21T07:24:39.701Z,26.30
2018-07-21T07:27:21.137Z,26.60
2018-07-21T07:29:56.598Z,26.80
2018-07-21T07:32:43.592Z,26.90
2018-07-21T07:35:22.369Z,27.10
2018-07-21T07:38:02.574Z,27.20
2018-07-21T07:40:47.262Z,27.30
2018-07-21T07:43:34.734Z,27.40
2018-07-21T07:46:22.452Z,27.50
2018-07-21T07:49:09.554Z,27.60
2018-07-21T07:52:07.789Z,27.80
2018-07-21T07:55:11.183Z,27.90
